sensor_id;sensor_type;location;lat;lon;timestamp;P1;durP1;ratioP1;P2;durP2;ratioP2
66567;SDS011;53422;49.296;6.900;2023-07-13T00:01:14;3.88;;;2.00;;
66567;SDS011;53422;49.296;6.900;2023-07-13T00:03:41;5.32;;;2.50;;
66567;SDS011;53422;49.296;6.900;2023-07-13T00:06:07;5.30;;;2.40;;
66567;SDS011;53422;49.296;6.900;2023-07-13T00:08:33;3.63;;;2.20;;
66567;SDS011;53422;49.296;6.900;2023-07-13T00:11:03;5.60;;;2.15;;
66567;SDS011;53422;49.296;6.900;2023-07-13T00:13:29;11.02;;;2.60;;
66567;SDS011;53422;49.296;6.900;2023-07-13T00:15:56;6.45;;;1.88;;
66567;SDS011;53422;49.296;6.900;2023-07-13T00:20:48;4.28;;;1.48;;
66567;SDS011;53422;49.296;6.900;2023-07-13T00:23:15;3.22;;;1.60;;
66567;SDS011;53422;49.296;6.900;2023-07-13T00:25:42;4.68;;;1.40;;
66567;SDS011;53422;49.296;6.900;2023-07-13T00:28:07;3.70;;;1.48;;
66567;SDS011;53422;49.296;6.900;2023-07-13T00:30:33;4.60;;;2.00;;
66567;SDS011;53422;49.296;6.900;2023-07-13T00:32:59;4.50;;;2.00;;
66567;SDS011;53422;49.296;6.900;2023-07-13T00:35:26;4.10;;;1.77;;
66567;SDS011;53422;49.296;6.900;2023-07-13T00:37:55;3.40;;;1.60;;
66567;SDS011;53422;49.296;6.900;2023-07-13T00:40:21;6.60;;;2.17;;
66567;SDS011;53422;49.296;6.900;2023-07-13T00:42:47;5.15;;;1.85;;
66567;SDS011;53422;49.296;6.900;2023-07-13T00:47:41;5.90;;;1.95;;
66567;SDS011;53422;49.296;6.900;2023-07-13T00:50:09;5.25;;;1.77;;
66567;SDS011;53422;49.296;6.900;2023-07-13T00:52:38;4.50;;;1.30;;
66567;SDS011;53422;49.296;6.900;2023-07-13T00:55:06;6.13;;;1.60;;
66567;SDS011;53422;49.296;6.900;2023-07-13T01:00:00;2.97;;;1.30;;
66567;SDS011;53422;49.296;6.900;2023-07-13T01:02:31;3.63;;;1.52;;
66567;SDS011;53422;49.296;6.900;2023-07-13T01:04:58;3.35;;;1.52;;
66567;SDS011;53422;49.296;6.900;2023-07-13T01:07:23;2.53;;;1.30;;
66567;SDS011;53422;49.296;6.900;2023-07-13T01:09:50;2.72;;;1.38;;
66567;SDS011;53422;49.296;6.900;2023-07-13T01:12:15;3.67;;;1.23;;
66567;SDS011;53422;49.296;6.900;2023-07-13T01:14:41;3.33;;;1.55;;
66567;SDS011;53422;49.296;6.900;2023-07-13T01:17:08;4.10;;;1.50;;
66567;SDS011;53422;49.296;6.900;2023-07-13T01:19:36;4.82;;;1.75;;
66567;SDS011;53422;49.296;6.900;2023-07-13T01:22:12;4.65;;;1.52;;
66567;SDS011;53422;49.296;6.900;2023-07-13T01:24:41;3.47;;;1.40;;
66567;SDS011;53422;49.296;6.900;2023-07-13T01:27:09;4.55;;;1.45;;
66567;SDS011;53422;49.296;6.900;2023-07-13T01:29:37;2.45;;;1.20;;
66567;SDS011;53422;49.296;6.900;2023-07-13T01:32:10;3.95;;;1.40;;
66567;SDS011;53422;49.296;6.900;2023-07-13T01:34:49;3.22;;;1.77;;
66567;SDS011;53422;49.296;6.900;2023-07-13T01:37:16;2.45;;;1.70;;
66567;SDS011;53422;49.296;6.900;2023-07-13T01:39:42;4.35;;;1.40;;
66567;SDS011;53422;49.296;6.900;2023-07-13T01:42:08;2.60;;;1.20;;
66567;SDS011;53422;49.296;6.900;2023-07-13T01:44:34;4.05;;;2.00;;
66567;SDS011;53422;49.296;6.900;2023-07-13T01:47:00;3.38;;;1.92;;
66567;SDS011;53422;49.296;6.900;2023-07-13T01:49:26;4.57;;;1.25;;
66567;SDS011;53422;49.296;6.900;2023-07-13T01:51:51;3.15;;;1.58;;
66567;SDS011;53422;49.296;6.900;2023-07-13T01:54:17;3.30;;;1.40;;
66567;SDS011;53422;49.296;6.900;2023-07-13T01:56:43;3.00;;;1.10;;
66567;SDS011;53422;49.296;6.900;2023-07-13T01:59:09;2.38;;;0.98;;
66567;SDS011;53422;49.296;6.900;2023-07-13T02:01:34;2.92;;;1.15;;
66567;SDS011;53422;49.296;6.900;2023-07-13T02:04:00;4.35;;;1.20;;
66567;SDS011;53422;49.296;6.900;2023-07-13T02:06:26;3.65;;;1.30;;
66567;SDS011;53422;49.296;6.900;2023-07-13T02:08:52;6.18;;;1.40;;
66567;SDS011;53422;49.296;6.900;2023-07-13T02:11:19;2.88;;;1.40;;
66567;SDS011;53422;49.296;6.900;2023-07-13T02:13:45;2.35;;;1.10;;
66567;SDS011;53422;49.296;6.900;2023-07-13T02:16:10;3.70;;;1.30;;
66567;SDS011;53422;49.296;6.900;2023-07-13T02:18:36;3.00;;;1.35;;
66567;SDS011;53422;49.296;6.900;2023-07-13T02:21:02;2.40;;;1.10;;
66567;SDS011;53422;49.296;6.900;2023-07-13T02:23:28;2.65;;;0.93;;
66567;SDS011;53422;49.296;6.900;2023-07-13T02:25:57;2.42;;;1.10;;
66567;SDS011;53422;49.296;6.900;2023-07-13T02:28:23;2.42;;;1.30;;
66567;SDS011;53422;49.296;6.900;2023-07-13T02:30:49;1.52;;;0.88;;
66567;SDS011;53422;49.296;6.900;2023-07-13T02:33:15;1.83;;;0.90;;
66567;SDS011;53422;49.296;6.900;2023-07-13T02:35:41;2.17;;;1.67;;
66567;SDS011;53422;49.296;6.900;2023-07-13T02:38:06;2.63;;;1.20;;
66567;SDS011;53422;49.296;6.900;2023-07-13T02:40:32;2.30;;;1.15;;
66567;SDS011;53422;49.296;6.900;2023-07-13T02:43:00;2.72;;;1.00;;
66567;SDS011;53422;49.296;6.900;2023-07-13T02:45:26;3.13;;;1.00;;
66567;SDS011;53422;49.296;6.900;2023-07-13T02:47:52;2.50;;;1.10;;
66567;SDS011;53422;49.296;6.900;2023-07-13T02:50:17;1.77;;;1.17;;
66567;SDS011;53422;49.296;6.900;2023-07-13T02:52:43;2.58;;;1.23;;
66567;SDS011;53422;49.296;6.900;2023-07-13T02:55:08;2.47;;;1.42;;
66567;SDS011;53422;49.296;6.900;2023-07-13T02:57:34;5.40;;;1.23;;
66567;SDS011;53422;49.296;6.900;2023-07-13T03:00:00;2.47;;;1.35;;
66567;SDS011;53422;49.296;6.900;2023-07-13T03:02:30;4.72;;;1.10;;
66567;SDS011;53422;49.296;6.900;2023-07-13T03:04:57;2.47;;;1.30;;
66567;SDS011;53422;49.296;6.900;2023-07-13T03:07:23;2.13;;;1.00;;
66567;SDS011;53422;49.296;6.900;2023-07-13T03:09:53;3.53;;;1.50;;
66567;SDS011;53422;49.296;6.900;2023-07-13T03:12:22;3.67;;;1.25;;
66567;SDS011;53422;49.296;6.900;2023-07-13T03:14:48;2.80;;;1.30;;
66567;SDS011;53422;49.296;6.900;2023-07-13T03:17:14;3.42;;;1.10;;
66567;SDS011;53422;49.296;6.900;2023-07-13T03:19:39;3.28;;;2.03;;
66567;SDS011;53422;49.296;6.900;2023-07-13T03:22:05;2.45;;;1.10;;
66567;SDS011;53422;49.296;6.900;2023-07-13T03:24:32;3.92;;;1.10;;
66567;SDS011;53422;49.296;6.900;2023-07-13T03:27:00;2.67;;;0.95;;
66567;SDS011;53422;49.296;6.900;2023-07-13T03:29:27;3.95;;;2.80;;
66567;SDS011;53422;49.296;6.900;2023-07-13T03:31:52;3.63;;;1.30;;
66567;SDS011;53422;49.296;6.900;2023-07-13T03:34:18;2.92;;;1.48;;
66567;SDS011;53422;49.296;6.900;2023-07-13T03:36:44;2.70;;;1.20;;
66567;SDS011;53422;49.296;6.900;2023-07-13T03:39:10;3.47;;;1.33;;
66567;SDS011;53422;49.296;6.900;2023-07-13T03:41:36;2.92;;;1.35;;
66567;SDS011;53422;49.296;6.900;2023-07-13T03:44:01;4.10;;;0.90;;
66567;SDS011;53422;49.296;6.900;2023-07-13T03:46:27;3.38;;;1.15;;
66567;SDS011;53422;49.296;6.900;2023-07-13T03:48:53;4.25;;;1.20;;
66567;SDS011;53422;49.296;6.900;2023-07-13T03:51:19;3.15;;;1.20;;
66567;SDS011;53422;49.296;6.900;2023-07-13T03:53:45;3.95;;;1.20;;
66567;SDS011;53422;49.296;6.900;2023-07-13T03:56:12;2.95;;;1.10;;
66567;SDS011;53422;49.296;6.900;2023-07-13T03:58:40;4.70;;;1.10;;
66567;SDS011;53422;49.296;6.900;2023-07-13T04:01:08;4.57;;;1.33;;
66567;SDS011;53422;49.296;6.900;2023-07-13T04:03:35;2.20;;;1.10;;
66567;SDS011;53422;49.296;6.900;2023-07-13T04:06:05;2.53;;;1.10;;
66567;SDS011;53422;49.296;6.900;2023-07-13T04:08:32;3.45;;;1.42;;
66567;SDS011;53422;49.296;6.900;2023-07-13T04:11:00;2.75;;;1.20;;
66567;SDS011;53422;49.296;6.900;2023-07-13T04:13:26;3.03;;;1.08;;
66567;SDS011;53422;49.296;6.900;2023-07-13T04:15:52;5.13;;;1.35;;
66567;SDS011;53422;49.296;6.900;2023-07-13T04:18:19;3.55;;;1.27;;
66567;SDS011;53422;49.296;6.900;2023-07-13T04:20:46;3.80;;;1.58;;
66567;SDS011;53422;49.296;6.900;2023-07-13T04:23:13;3.17;;;1.30;;
66567;SDS011;53422;49.296;6.900;2023-07-13T04:25:39;3.50;;;1.52;;
66567;SDS011;53422;49.296;6.900;2023-07-13T04:28:08;1.92;;;1.20;;
66567;SDS011;53422;49.296;6.900;2023-07-13T04:30:34;3.55;;;1.70;;
66567;SDS011;53422;49.296;6.900;2023-07-13T04:33:00;3.38;;;1.13;;
66567;SDS011;53422;49.296;6.900;2023-07-13T04:35:25;2.58;;;1.20;;
66567;SDS011;53422;49.296;6.900;2023-07-13T04:37:52;3.08;;;1.38;;
66567;SDS011;53422;49.296;6.900;2023-07-13T04:40:18;4.47;;;1.58;;
66567;SDS011;53422;49.296;6.900;2023-07-13T04:42:44;4.78;;;1.83;;
66567;SDS011;53422;49.296;6.900;2023-07-13T04:45:11;5.05;;;1.50;;
66567;SDS011;53422;49.296;6.900;2023-07-13T04:47:38;6.72;;;1.63;;
66567;SDS011;53422;49.296;6.900;2023-07-13T04:50:05;6.32;;;1.80;;
66567;SDS011;53422;49.296;6.900;2023-07-13T04:52:31;6.85;;;1.75;;
66567;SDS011;53422;49.296;6.900;2023-07-13T04:54:58;5.65;;;1.90;;
66567;SDS011;53422;49.296;6.900;2023-07-13T04:57:24;4.53;;;1.85;;
66567;SDS011;53422;49.296;6.900;2023-07-13T04:59:50;9.73;;;2.80;;
66567;SDS011;53422;49.296;6.900;2023-07-13T05:02:16;6.18;;;2.05;;
66567;SDS011;53422;49.296;6.900;2023-07-13T05:04:42;4.97;;;1.77;;
66567;SDS011;53422;49.296;6.900;2023-07-13T05:07:07;5.43;;;1.88;;
66567;SDS011;53422;49.296;6.900;2023-07-13T05:09:33;3.13;;;1.38;;
66567;SDS011;53422;49.296;6.900;2023-07-13T05:11:59;2.92;;;1.50;;
66567;SDS011;53422;49.296;6.900;2023-07-13T05:14:24;3.35;;;1.50;;
66567;SDS011;53422;49.296;6.900;2023-07-13T05:16:50;4.32;;;1.67;;
66567;SDS011;53422;49.296;6.900;2023-07-13T05:19:16;4.43;;;1.60;;
66567;SDS011;53422;49.296;6.900;2023-07-13T05:21:41;5.13;;;2.75;;
66567;SDS011;53422;49.296;6.900;2023-07-13T05:24:07;4.00;;;1.50;;
66567;SDS011;53422;49.296;6.900;2023-07-13T05:26:33;5.95;;;1.63;;
66567;SDS011;53422;49.296;6.900;2023-07-13T05:28:58;4.63;;;1.80;;
66567;SDS011;53422;49.296;6.900;2023-07-13T05:31:24;3.75;;;2.00;;
66567;SDS011;53422;49.296;6.900;2023-07-13T05:33:50;5.95;;;1.90;;
66567;SDS011;53422;49.296;6.900;2023-07-13T05:36:16;5.30;;;1.75;;
66567;SDS011;53422;49.296;6.900;2023-07-13T05:38:41;5.43;;;1.88;;
66567;SDS011;53422;49.296;6.900;2023-07-13T05:41:07;4.25;;;2.00;;
66567;SDS011;53422;49.296;6.900;2023-07-13T05:43:33;3.50;;;2.03;;
66567;SDS011;53422;49.296;6.900;2023-07-13T05:45:59;3.60;;;1.70;;
66567;SDS011;53422;49.296;6.900;2023-07-13T05:48:24;8.30;;;1.92;;
66567;SDS011;53422;49.296;6.900;2023-07-13T05:50:50;5.95;;;1.98;;
66567;SDS011;53422;49.296;6.900;2023-07-13T05:53:15;6.60;;;2.20;;
66567;SDS011;53422;49.296;6.900;2023-07-13T05:55:42;3.60;;;1.50;;
66567;SDS011;53422;49.296;6.900;2023-07-13T05:58:08;4.55;;;1.70;;
66567;SDS011;53422;49.296;6.900;2023-07-13T06:00:34;5.05;;;1.48;;
66567;SDS011;53422;49.296;6.900;2023-07-13T06:03:00;5.53;;;1.67;;
66567;SDS011;53422;49.296;6.900;2023-07-13T06:05:26;4.57;;;1.55;;
66567;SDS011;53422;49.296;6.900;2023-07-13T06:07:53;5.68;;;1.70;;
66567;SDS011;53422;49.296;6.900;2023-07-13T06:10:19;4.10;;;1.45;;
66567;SDS011;53422;49.296;6.900;2023-07-13T06:12:45;8.25;;;1.58;;
66567;SDS011;53422;49.296;6.900;2023-07-13T06:15:11;8.48;;;1.55;;
66567;SDS011;53422;49.296;6.900;2023-07-13T06:17:37;5.95;;;1.73;;
66567;SDS011;53422;49.296;6.900;2023-07-13T06:20:02;3.40;;;1.30;;
66567;SDS011;53422;49.296;6.900;2023-07-13T06:22:29;4.40;;;1.63;;
66567;SDS011;53422;49.296;6.900;2023-07-13T06:24:54;5.88;;;1.73;;
66567;SDS011;53422;49.296;6.900;2023-07-13T06:27:20;2.35;;;1.25;;
66567;SDS011;53422;49.296;6.900;2023-07-13T06:29:45;2.95;;;1.00;;
66567;SDS011;53422;49.296;6.900;2023-07-13T06:32:11;5.03;;;1.60;;
66567;SDS011;53422;49.296;6.900;2023-07-13T06:34:37;4.60;;;1.30;;
66567;SDS011;53422;49.296;6.900;2023-07-13T06:37:03;3.78;;;1.00;;
66567;SDS011;53422;49.296;6.900;2023-07-13T06:39:28;2.83;;;1.00;;
66567;SDS011;53422;49.296;6.900;2023-07-13T06:41:54;4.30;;;1.90;;
66567;SDS011;53422;49.296;6.900;2023-07-13T06:44:20;4.03;;;1.45;;
66567;SDS011;53422;49.296;6.900;2023-07-13T06:46:46;3.38;;;1.40;;
66567;SDS011;53422;49.296;6.900;2023-07-13T06:49:11;5.45;;;1.10;;
66567;SDS011;53422;49.296;6.900;2023-07-13T06:51:37;2.40;;;1.17;;
66567;SDS011;53422;49.296;6.900;2023-07-13T06:54:03;4.40;;;1.20;;
66567;SDS011;53422;49.296;6.900;2023-07-13T06:56:28;2.40;;;1.10;;
66567;SDS011;53422;49.296;6.900;2023-07-13T06:58:54;2.05;;;0.70;;
66567;SDS011;53422;49.296;6.900;2023-07-13T07:01:20;2.92;;;0.75;;
66567;SDS011;53422;49.296;6.900;2023-07-13T07:03:45;4.68;;;2.10;;
66567;SDS011;53422;49.296;6.900;2023-07-13T07:06:13;2.80;;;0.95;;
66567;SDS011;53422;49.296;6.900;2023-07-13T07:08:40;3.75;;;1.00;;
66567;SDS011;53422;49.296;6.900;2023-07-13T07:11:08;5.28;;;1.00;;
66567;SDS011;53422;49.296;6.900;2023-07-13T07:13:36;3.70;;;1.33;;
66567;SDS011;53422;49.296;6.900;2023-07-13T07:16:05;5.47;;;1.23;;
66567;SDS011;53422;49.296;6.900;2023-07-13T07:18:31;2.80;;;1.00;;
66567;SDS011;53422;49.296;6.900;2023-07-13T07:20:57;4.18;;;0.93;;
66567;SDS011;53422;49.296;6.900;2023-07-13T07:23:23;3.80;;;1.35;;
66567;SDS011;53422;49.296;6.900;2023-07-13T07:25:49;7.03;;;1.20;;
66567;SDS011;53422;49.296;6.900;2023-07-13T07:30:46;5.10;;;1.10;;
66567;SDS011;53422;49.296;6.900;2023-07-13T07:33:12;5.03;;;1.10;;
66567;SDS011;53422;49.296;6.900;2023-07-13T07:35:38;3.33;;;1.10;;
66567;SDS011;53422;49.296;6.900;2023-07-13T07:38:03;4.32;;;1.20;;
66567;SDS011;53422;49.296;6.900;2023-07-13T07:40:29;3.60;;;1.10;;
66567;SDS011;53422;49.296;6.900;2023-07-13T07:42:56;5.70;;;1.10;;
66567;SDS011;53422;49.296;6.900;2023-07-13T07:45:22;3.25;;;1.00;;
66567;SDS011;53422;49.296;6.900;2023-07-13T07:47:48;3.67;;;0.98;;
66567;SDS011;53422;49.296;6.900;2023-07-13T07:50:13;5.30;;;1.25;;
66567;SDS011;53422;49.296;6.900;2023-07-13T07:52:39;5.82;;;1.40;;
66567;SDS011;53422;49.296;6.900;2023-07-13T07:55:05;2.45;;;0.93;;
66567;SDS011;53422;49.296;6.900;2023-07-13T07:57:32;3.97;;;0.85;;
66567;SDS011;53422;49.296;6.900;2023-07-13T07:59:58;4.47;;;0.85;;
66567;SDS011;53422;49.296;6.900;2023-07-13T08:02:24;3.55;;;0.80;;
66567;SDS011;53422;49.296;6.900;2023-07-13T08:04:50;3.83;;;0.80;;
66567;SDS011;53422;49.296;6.900;2023-07-13T08:07:16;3.75;;;0.90;;
66567;SDS011;53422;49.296;6.900;2023-07-13T08:09:42;4.05;;;1.08;;
66567;SDS011;53422;49.296;6.900;2023-07-13T08:12:07;3.97;;;0.80;;
66567;SDS011;53422;49.296;6.900;2023-07-13T08:14:33;4.88;;;1.40;;
66567;SDS011;53422;49.296;6.900;2023-07-13T08:16:59;2.53;;;0.82;;
66567;SDS011;53422;49.296;6.900;2023-07-13T08:19:25;2.75;;;0.80;;
66567;SDS011;53422;49.296;6.900;2023-07-13T08:21:50;2.28;;;0.70;;
66567;SDS011;53422;49.296;6.900;2023-07-13T08:24:16;4.53;;;0.90;;
66567;SDS011;53422;49.296;6.900;2023-07-13T08:26:43;2.28;;;0.95;;
66567;SDS011;53422;49.296;6.900;2023-07-13T08:29:11;3.05;;;0.80;;
66567;SDS011;53422;49.296;6.900;2023-07-13T08:31:36;5.35;;;0.88;;
66567;SDS011;53422;49.296;6.900;2023-07-13T08:34:02;2.53;;;0.82;;
66567;SDS011;53422;49.296;6.900;2023-07-13T08:36:28;3.58;;;0.90;;
66567;SDS011;53422;49.296;6.900;2023-07-13T08:38:54;4.85;;;0.95;;
66567;SDS011;53422;49.296;6.900;2023-07-13T08:41:20;2.95;;;0.70;;
66567;SDS011;53422;49.296;6.900;2023-07-13T08:43:47;3.20;;;0.63;;
66567;SDS011;53422;49.296;6.900;2023-07-13T08:46:21;3.95;;;0.85;;
66567;SDS011;53422;49.296;6.900;2023-07-13T08:48:56;2.88;;;1.02;;
66567;SDS011;53422;49.296;6.900;2023-07-13T08:54:00;1.42;;;0.70;;
66567;SDS011;53422;49.296;6.900;2023-07-13T08:56:29;2.50;;;0.95;;
66567;SDS011;53422;49.296;6.900;2023-07-13T08:58:57;3.35;;;0.90;;
66567;SDS011;53422;49.296;6.900;2023-07-13T09:04:11;5.20;;;0.80;;
66567;SDS011;53422;49.296;6.900;2023-07-13T09:14:43;2.92;;;0.90;;
66567;SDS011;53422;49.296;6.900;2023-07-13T09:17:20;2.38;;;0.80;;
66567;SDS011;53422;49.296;6.900;2023-07-13T09:19:55;2.28;;;0.80;;
66567;SDS011;53422;49.296;6.900;2023-07-13T09:22:29;3.10;;;0.80;;
66567;SDS011;53422;49.296;6.900;2023-07-13T09:25:05;3.85;;;0.70;;
66567;SDS011;53422;49.296;6.900;2023-07-13T09:27:39;2.50;;;0.70;;
66567;SDS011;53422;49.296;6.900;2023-07-13T09:32:36;1.80;;;0.80;;
66567;SDS011;53422;49.296;6.900;2023-07-13T09:35:09;3.15;;;0.88;;
66567;SDS011;53422;49.296;6.900;2023-07-13T09:37:37;3.22;;;0.68;;
66567;SDS011;53422;49.296;6.900;2023-07-13T09:40:03;3.67;;;0.90;;
66567;SDS011;53422;49.296;6.900;2023-07-13T09:42:36;2.50;;;0.80;;
66567;SDS011;53422;49.296;6.900;2023-07-13T09:45:03;2.17;;;0.63;;
66567;SDS011;53422;49.296;6.900;2023-07-13T09:47:31;2.47;;;0.82;;
66567;SDS011;53422;49.296;6.900;2023-07-13T09:50:04;4.00;;;1.55;;
66567;SDS011;53422;49.296;6.900;2023-07-13T09:52:42;2.10;;;0.85;;
66567;SDS011;53422;49.296;6.900;2023-07-13T09:57:55;3.40;;;0.95;;
66567;SDS011;53422;49.296;6.900;2023-07-13T10:00:27;3.97;;;0.80;;
66567;SDS011;53422;49.296;6.900;2023-07-13T10:05:48;4.90;;;0.85;;
66567;SDS011;53422;49.296;6.900;2023-07-13T10:08:26;2.75;;;0.75;;
66567;SDS011;53422;49.296;6.900;2023-07-13T10:10:59;3.72;;;0.80;;
66567;SDS011;53422;49.296;6.900;2023-07-13T10:13:35;1.88;;;0.95;;
66567;SDS011;53422;49.296;6.900;2023-07-13T10:16:16;1.02;;;0.60;;
66567;SDS011;53422;49.296;6.900;2023-07-13T10:18:46;2.30;;;1.00;;
66567;SDS011;53422;49.296;6.900;2023-07-13T10:21:19;3.60;;;1.00;;
66567;SDS011;53422;49.296;6.900;2023-07-13T10:24:21;2.78;;;1.05;;
66567;SDS011;53422;49.296;6.900;2023-07-13T10:29:25;3.83;;;1.15;;
66567;SDS011;53422;49.296;6.900;2023-07-13T10:31:53;1.83;;;0.80;;
66567;SDS011;53422;49.296;6.900;2023-07-13T10:34:19;2.03;;;0.63;;
66567;SDS011;53422;49.296;6.900;2023-07-13T10:36:46;2.65;;;0.80;;
66567;SDS011;53422;49.296;6.900;2023-07-13T10:41:44;5.70;;;0.98;;
66567;SDS011;53422;49.296;6.900;2023-07-13T10:44:18;3.10;;;0.90;;
66567;SDS011;53422;49.296;6.900;2023-07-13T10:46:54;2.65;;;0.82;;
66567;SDS011;53422;49.296;6.900;2023-07-13T10:49:23;3.30;;;0.77;;
66567;SDS011;53422;49.296;6.900;2023-07-13T10:51:51;2.45;;;0.70;;
66567;SDS011;53422;49.296;6.900;2023-07-13T10:54:22;1.75;;;0.82;;
66567;SDS011;53422;49.296;6.900;2023-07-13T10:57:35;2.03;;;0.75;;
66567;SDS011;53422;49.296;6.900;2023-07-13T10:59:47;3.30;;;0.70;;
66567;SDS011;53422;49.296;6.900;2023-07-13T11:02:30;3.13;;;0.90;;
66567;SDS011;53422;49.296;6.900;2023-07-13T11:04:56;2.00;;;0.75;;
66567;SDS011;53422;49.296;6.900;2023-07-13T11:07:29;1.77;;;0.60;;
66567;SDS011;53422;49.296;6.900;2023-07-13T11:10:03;3.17;;;0.68;;
66567;SDS011;53422;49.296;6.900;2023-07-13T11:12:50;3.78;;;1.25;;
66567;SDS011;53422;49.296;6.900;2023-07-13T11:15:27;3.10;;;0.82;;
66567;SDS011;53422;49.296;6.900;2023-07-13T11:17:57;1.90;;;0.70;;
66567;SDS011;53422;49.296;6.900;2023-07-13T11:20:35;6.60;;;0.82;;
66567;SDS011;53422;49.296;6.900;2023-07-13T11:25:38;2.95;;;0.77;;
66567;SDS011;53422;49.296;6.900;2023-07-13T11:28:06;3.83;;;0.80;;
66567;SDS011;53422;49.296;6.900;2023-07-13T11:33:07;1.30;;;0.75;;
66567;SDS011;53422;49.296;6.900;2023-07-13T11:38:23;2.88;;;0.75;;
66567;SDS011;53422;49.296;6.900;2023-07-13T11:40:53;2.38;;;0.95;;
66567;SDS011;53422;49.296;6.900;2023-07-13T11:45:48;4.38;;;0.98;;
66567;SDS011;53422;49.296;6.900;2023-07-13T11:50:51;3.00;;;0.68;;
66567;SDS011;53422;49.296;6.900;2023-07-13T11:53:28;2.03;;;0.65;;
66567;SDS011;53422;49.296;6.900;2023-07-13T11:56:00;3.63;;;0.93;;
66567;SDS011;53422;49.296;6.900;2023-07-13T11:58:26;3.55;;;0.73;;
66567;SDS011;53422;49.296;6.900;2023-07-13T12:03:20;3.90;;;0.95;;
66567;SDS011;53422;49.296;6.900;2023-07-13T12:05:59;1.98;;;0.70;;
66567;SDS011;53422;49.296;6.900;2023-07-13T12:08:27;2.53;;;0.52;;
66567;SDS011;53422;49.296;6.900;2023-07-13T12:11:00;7.03;;;0.95;;
66567;SDS011;53422;49.296;6.900;2023-07-13T12:13:34;3.25;;;1.20;;
66567;SDS011;53422;49.296;6.900;2023-07-13T12:16:00;2.88;;;0.80;;
66567;SDS011;53422;49.296;6.900;2023-07-13T12:18:30;4.30;;;0.98;;
66567;SDS011;53422;49.296;6.900;2023-07-13T12:20:57;3.20;;;0.93;;
66567;SDS011;53422;49.296;6.900;2023-07-13T12:23:25;2.90;;;0.82;;
66567;SDS011;53422;49.296;6.900;2023-07-13T12:26:04;4.05;;;1.20;;
66567;SDS011;53422;49.296;6.900;2023-07-13T12:34:06;3.85;;;0.82;;
66567;SDS011;53422;49.296;6.900;2023-07-13T12:36:35;5.05;;;0.93;;
66567;SDS011;53422;49.296;6.900;2023-07-13T12:39:04;2.28;;;0.68;;
66567;SDS011;53422;49.296;6.900;2023-07-13T12:41:44;5.25;;;0.70;;
66567;SDS011;53422;49.296;6.900;2023-07-13T12:44:26;1.58;;;0.63;;
66567;SDS011;53422;49.296;6.900;2023-07-13T12:46:58;4.00;;;0.75;;
66567;SDS011;53422;49.296;6.900;2023-07-13T12:49:30;4.57;;;0.93;;
66567;SDS011;53422;49.296;6.900;2023-07-13T12:52:01;2.55;;;0.82;;
66567;SDS011;53422;49.296;6.900;2023-07-13T12:54:29;3.92;;;0.90;;
66567;SDS011;53422;49.296;6.900;2023-07-13T12:56:56;4.30;;;0.80;;
66567;SDS011;53422;49.296;6.900;2023-07-13T12:59:24;3.05;;;0.77;;
66567;SDS011;53422;49.296;6.900;2023-07-13T13:01:54;2.80;;;0.70;;
66567;SDS011;53422;49.296;6.900;2023-07-13T13:04:19;5.53;;;1.08;;
66567;SDS011;53422;49.296;6.900;2023-07-13T13:06:47;4.97;;;0.80;;
66567;SDS011;53422;49.296;6.900;2023-07-13T13:11:40;2.88;;;0.80;;
66567;SDS011;53422;49.296;6.900;2023-07-13T13:14:06;4.05;;;1.15;;
66567;SDS011;53422;49.296;6.900;2023-07-13T13:16:35;3.10;;;0.80;;
66567;SDS011;53422;49.296;6.900;2023-07-13T13:21:42;3.20;;;0.77;;
66567;SDS011;53422;49.296;6.900;2023-07-13T13:26:36;2.45;;;0.90;;
66567;SDS011;53422;49.296;6.900;2023-07-13T13:29:04;2.15;;;0.60;;
66567;SDS011;53422;49.296;6.900;2023-07-13T13:31:44;1.52;;;0.57;;
66567;SDS011;53422;49.296;6.900;2023-07-13T13:34:10;4.75;;;0.80;;
66567;SDS011;53422;49.296;6.900;2023-07-13T13:36:38;1.90;;;0.80;;
66567;SDS011;53422;49.296;6.900;2023-07-13T13:39:24;1.55;;;0.50;;
66567;SDS011;53422;49.296;6.900;2023-07-13T13:41:52;1.60;;;1.00;;
66567;SDS011;53422;49.296;6.900;2023-07-13T13:44:19;2.35;;;0.63;;
66567;SDS011;53422;49.296;6.900;2023-07-13T13:49:16;2.42;;;0.63;;
66567;SDS011;53422;49.296;6.900;2023-07-13T13:51:45;1.65;;;0.65;;
66567;SDS011;53422;49.296;6.900;2023-07-13T13:54:12;2.13;;;0.63;;
66567;SDS011;53422;49.296;6.900;2023-07-13T13:56:42;2.13;;;0.77;;
66567;SDS011;53422;49.296;6.900;2023-07-13T13:59:09;1.48;;;0.75;;
66567;SDS011;53422;49.296;6.900;2023-07-13T14:01:36;1.45;;;0.60;;
66567;SDS011;53422;49.296;6.900;2023-07-13T14:04:03;1.75;;;0.85;;
66567;SDS011;53422;49.296;6.900;2023-07-13T14:06:30;3.97;;;1.00;;
66567;SDS011;53422;49.296;6.900;2023-07-13T14:08:56;4.45;;;0.70;;
66567;SDS011;53422;49.296;6.900;2023-07-13T14:11:22;1.98;;;0.65;;
66567;SDS011;53422;49.296;6.900;2023-07-13T14:13:53;2.50;;;1.50;;
66567;SDS011;53422;49.296;6.900;2023-07-13T14:16:21;1.98;;;0.88;;
66567;SDS011;53422;49.296;6.900;2023-07-13T14:18:53;2.47;;;0.70;;
66567;SDS011;53422;49.296;6.900;2023-07-13T14:21:22;2.90;;;0.75;;
66567;SDS011;53422;49.296;6.900;2023-07-13T14:23:48;3.85;;;0.73;;
66567;SDS011;53422;49.296;6.900;2023-07-13T14:26:16;1.30;;;0.73;;
66567;SDS011;53422;49.296;6.900;2023-07-13T14:28:48;2.25;;;1.08;;
66567;SDS011;53422;49.296;6.900;2023-07-13T14:31:18;1.73;;;0.85;;
66567;SDS011;53422;49.296;6.900;2023-07-13T14:33:47;1.92;;;0.85;;
66567;SDS011;53422;49.296;6.900;2023-07-13T14:38:47;2.33;;;0.75;;
66567;SDS011;53422;49.296;6.900;2023-07-13T14:41:13;3.13;;;0.95;;
66567;SDS011;53422;49.296;6.900;2023-07-13T14:43:39;1.42;;;0.52;;
66567;SDS011;53422;49.296;6.900;2023-07-13T14:46:04;4.10;;;0.70;;
66567;SDS011;53422;49.296;6.900;2023-07-13T14:48:31;2.65;;;0.63;;
66567;SDS011;53422;49.296;6.900;2023-07-13T14:50:57;2.47;;;0.55;;
66567;SDS011;53422;49.296;6.900;2023-07-13T14:53:25;1.58;;;0.73;;
66567;SDS011;53422;49.296;6.900;2023-07-13T14:55:54;1.92;;;0.60;;
66567;SDS011;53422;49.296;6.900;2023-07-13T14:58:19;3.80;;;1.20;;
66567;SDS011;53422;49.296;6.900;2023-07-13T15:00:45;2.28;;;0.63;;
66567;SDS011;53422;49.296;6.900;2023-07-13T15:03:17;4.30;;;0.82;;
66567;SDS011;53422;49.296;6.900;2023-07-13T15:05:48;2.53;;;0.52;;
66567;SDS011;53422;49.296;6.900;2023-07-13T15:08:14;4.03;;;0.88;;
66567;SDS011;53422;49.296;6.900;2023-07-13T15:10:40;2.97;;;1.63;;
66567;SDS011;53422;49.296;6.900;2023-07-13T15:15:42;4.55;;;0.93;;
66567;SDS011;53422;49.296;6.900;2023-07-13T15:18:12;2.88;;;0.75;;
66567;SDS011;53422;49.296;6.900;2023-07-13T15:20:39;2.15;;;0.70;;
66567;SDS011;53422;49.296;6.900;2023-07-13T15:23:05;2.45;;;0.88;;
66567;SDS011;53422;49.296;6.900;2023-07-13T15:25:32;2.30;;;1.00;;
66567;SDS011;53422;49.296;6.900;2023-07-13T15:27:58;3.33;;;0.80;;
66567;SDS011;53422;49.296;6.900;2023-07-13T15:30:36;4.60;;;0.80;;
66567;SDS011;53422;49.296;6.900;2023-07-13T15:33:27;3.25;;;0.70;;
66567;SDS011;53422;49.296;6.900;2023-07-13T15:35:54;2.33;;;0.63;;
66567;SDS011;53422;49.296;6.900;2023-07-13T15:38:24;2.40;;;0.80;;
66567;SDS011;53422;49.296;6.900;2023-07-13T15:40:54;2.65;;;0.85;;
66567;SDS011;53422;49.296;6.900;2023-07-13T15:45:47;1.92;;;0.73;;
66567;SDS011;53422;49.296;6.900;2023-07-13T15:48:15;2.83;;;0.95;;
66567;SDS011;53422;49.296;6.900;2023-07-13T15:50:45;2.17;;;0.90;;
66567;SDS011;53422;49.296;6.900;2023-07-13T15:53:18;1.13;;;0.63;;
66567;SDS011;53422;49.296;6.900;2023-07-13T15:55:48;2.05;;;0.70;;
66567;SDS011;53422;49.296;6.900;2023-07-13T15:58:15;3.65;;;0.90;;
66567;SDS011;53422;49.296;6.900;2023-07-13T16:00:41;2.47;;;0.70;;
66567;SDS011;53422;49.296;6.900;2023-07-13T16:03:07;3.15;;;0.80;;
66567;SDS011;53422;49.296;6.900;2023-07-13T16:05:33;2.78;;;0.80;;
66567;SDS011;53422;49.296;6.900;2023-07-13T16:07:59;2.58;;;1.60;;